Latest Coastal Weather Observations for Melbourne (Olympic Park)

IDV60701

Issued at 12:41 pm EST Wednesday 8 July 2015 (issued every 10 minutes, with the page automatically refreshed every 10 minutes)

About coastal observations | Map of coastal stations | Coastal observations for VIC | Marine services | Other Formats
Station Details ID: 086338 Name: MELBOURNE (OLYMPIC PARK) Lat: -37.83 Lon: 144.98 Height: 7.53 m
Data from the previous 72 hours. | See also: Recent months at Melbourne (Olympic Park)
Date/Time
EST
Temp

°C
Wind Pressure Rain
since 9am
mm
Weather Cloud Vis
km
Sea
Height
m
Swell
Dir
 
Speed
knots
Gust
knots
hPa Trend Height
m
Period
s
Dir
08/12:30pm 13.1 N 9 15 1026.8 - 0.0 - - - - - - -
08/12:00pm 13.2 N 9 12 1027.1 - 0.0 - - - - - - -
08/11:30am 13.3 N 10 15 1027.4 - 0.0 - - - - - - -
08/11:00am 11.8 NE 5 6 1027.6 - 0.0 - - - - - - -
08/10:30am 10.1 NNE 5 6 1027.7 - 0.0 - - - - - - -
08/10:00am 8.6 NNE 6 7 1027.7 - 0.0 - - - - - - -
08/09:30am 7.2 NNE 5 7 1027.6 - 0.0 - - - - - - -
08/09:00am 6.5 NNE 5 7 1027.4 - 0.2 - - - - - - -
08/08:30am 5.2 NNE 5 7 1027.3 - 0.2 - - - - - - -
08/08:00am 5.1 NNE 5 7 1027.0 - 0.2 - - - - - - -
08/07:30am 5.0 NNE 6 8 1026.8 - 0.2 - - - - - - -
08/07:00am 5.0 NNE 5 7 1026.5 - 0.2 - - - - - - -
08/06:30am 5.2 NNE 5 6 1026.1 - 0.2 - - - - - - -
08/06:00am 5.2 NNE 4 6 1026.0 - 0.2 - - - - - - -
08/05:30am 5.3 NNE 5 6 1025.7 - 0.2 - - - - - - -
08/05:00am 5.6 NNE 5 7 1025.6 - 0.2 - - - - - - -
08/04:30am 5.7 NNE 4 6 1025.5 - 0.2 - - - - - - -
08/04:00am 5.9 NNE 3 5 1025.7 - 0.2 - - - - - - -
08/03:30am 6.2 NE 5 6 1025.7 - 0.2 - - - - - - -
08/03:00am 6.5 NNE 4 6 1025.6 - 0.2 - - - - - - -
08/02:30am 6.7 NE 5 7 1025.6 - 0.2 - - - - - - -
08/02:00am 6.4 CALM 0 0 1025.5 - 0.2 - - - - - - -
08/01:30am 6.4 CALM 0 0 1025.4 - 0.2 - - - - - - -
08/01:00am 6.8 SE 1 3 1025.2 - 0.2 - - - - - - -
08/12:30am 6.8 CALM 0 0 1025.2 - 0.2 - - - - - - -
08/12:00am 7.2 CALM 0 0 1025.1 - 0.2 - - - - - - -
 
Date/Time
EST
Temp

°C
Wind Pressure Rain
since 9am
mm
Weather Cloud Vis
km
Sea
Height
m
Swell
Dir
 
Speed
knots
Gust
knots
hPa Trend Height
m
Period
s
Dir
07/11:30pm 7.7 CALM 0 0 1025.2 - 0.2 - - - - - - -
07/11:00pm 8.1 CALM 0 0 1025.1 - 0.2 - - - - - - -
07/10:30pm 8.6 CALM 0 0 1025.0 - 0.2 - - - - - - -
07/10:00pm 9.1 CALM 0 0 1025.0 - 0.2 - - - - - - -
07/09:30pm 9.6 CALM 0 0 1024.9 - 0.2 - - - - - - -
07/09:00pm 10.0 CALM 0 0 1024.7 - 0.2 - - - - - - -
07/08:30pm 10.7 CALM 0 0 1024.5 - 0.2 - - - - - - -
07/08:00pm 11.2 CALM 0 2 1024.3 - 0.2 - - - - - - -
07/07:30pm 11.5 S 2 6 1024.1 - 0.2 - - - - - - -
07/07:00pm 11.6 SSE 2 5 1024.1 - 0.2 - - - - - - -
07/06:30pm 12.1 SE 4 8 1023.8 - 0.2 - - - - - - -
07/06:00pm 11.5 SSE 2 6 1023.7 - 0.2 - - - - - - -
07/05:30pm 11.4 SSW 2 4 1023.5 - 0.2 - - - - - - -
07/05:00pm 11.5 SW 3 5 1023.4 - 0.2 - - - - - - -
07/04:30pm 11.7 SSW 4 6 1023.2 - 0.2 - - - - - - -
07/04:00pm 12.0 S 4 7 1023.0 - 0.2 - - - - - - -
07/03:30pm 12.0 SSW 5 8 1022.8 - 0.2 - - - - - - -
07/03:00pm 12.0 SSW 6 9 1022.6 - 0.0 - - - - - - -
07/02:30pm 12.8 SSW 4 7 1022.3 - 0.0 - - - - - - -
07/02:00pm 12.9 SSW 6 9 1022.2 - 0.0 - - - - - - -
07/01:30pm 13.4 SSW 5 8 1022.3 - 0.0 - - - - - - -
07/01:00pm 12.6 SSW 5 7 1022.5 - 0.0 - - - - - - -
07/12:30pm 13.7 NW 1 4 1022.6 - 0.0 - - - - - - -
07/12:00pm 12.5 CALM 0 0 1022.7 - 0.0 - - - - - - -
07/11:30am 12.9 NW 3 5 1023.1 - 0.0 - - - - - - -
07/11:00am 12.5 N 5 6 1023.2 - 0.0 - - - - - - -
07/10:30am 11.1 NNE 5 6 1023.1 - 0.0 - - - - - - -
07/10:00am 10.1 NNE 5 7 1023.0 - 0.0 - - - - - - -
07/09:30am 9.9 NNE 5 7 1022.8 - 0.0 - - - - - - -
07/09:00am 9.5 N 4 7 1022.5 - 2.2 - - - - - - -
07/08:30am 9.2 NE 4 5 1022.5 - 2.2 - - - - - - -
07/08:00am 8.9 NE 1 4 1022.1 - 2.2 - - - - - - -
07/07:30am 8.8 NE 3 5 1021.7 - 2.2 - - - - - - -
07/07:00am 8.6 NNE 5 6 1021.2 - 2.2 - - - - - - -
07/06:30am 8.5 NNE 3 5 1020.8 - 2.2 - - - - - - -
07/06:00am 8.5 N 4 7 1020.3 - 2.2 - - - - - - -
07/05:30am 8.6 NNE 4 5 1020.1 - 2.2 - - - - - - -
07/05:00am 8.5 NNE 4 5 1020.0 - 2.2 - - - - - - -
07/04:30am 8.5 NNE 4 6 1019.8 - 2.2 - - - - - - -
07/04:00am 8.5 NNE 3 5 1019.7 - 2.2 - - - - - - -
07/03:30am 8.6 NE 5 6 1019.6 - 2.2 - - - - - - -
07/03:00am 8.9 NNE 5 7 1019.5 - 2.2 - - - - - - -
07/02:30am 9.0 NNE 4 7 1019.4 - 2.2 - - - - - - -
07/02:00am 9.1 NNE 5 7 1019.1 - 2.2 - - - - - - -
07/01:30am 9.0 NNE 5 7 1018.9 - 2.2 - - - - - - -
07/01:00am 8.9 NNE 6 8 1018.7 - 2.2 - - - - - - -
07/12:30am 9.1 N 5 8 1018.6 - 2.2 - - - - - - -
07/12:00am 9.1 N 6 11 1018.6 - 2.2 - - - - - - -
 
Date/Time
EST
Temp

°C
Wind Pressure Rain
since 9am
mm
Weather Cloud Vis
km
Sea
Height
m
Swell
Dir
 
Speed
knots
Gust
knots
hPa Trend Height
m
Period
s
Dir
06/11:30pm 9.0 N 8 11 1018.6 - 2.2 - - - - - - -
06/11:00pm 9.1 N 7 11 1018.6 - 2.2 - - - - - - -
06/10:30pm 9.2 N 7 9 1018.5 - 2.2 - - - - - - -
06/10:00pm 9.2 N 5 8 1018.5 - 2.2 - - - - - - -
06/09:30pm 9.2 N 8 11 1018.2 - 2.2 - - - - - - -
06/09:00pm 9.1 N 9 13 1018.1 - 2.2 - - - - - - -
06/08:30pm 8.9 N 9 13 1018.0 - 2.2 - - - - - - -
06/08:00pm 8.8 N 10 14 1017.6 - 2.2 - - - - - - -
06/07:30pm 8.8 N 7 13 1017.5 - 2.0 - - - - - - -
06/07:00pm 9.2 N 9 13 1017.5 - 1.6 - - - - - - -
06/06:30pm 9.4 N 7 11 1017.1 - 1.4 - - - - - - -
06/06:00pm 9.6 N 7 10 1016.7 - 1.4 - - - - - - -
06/05:30pm 9.6 N 9 13 1016.2 - 1.4 - - - - - - -
06/05:00pm 9.7 NNW 8 13 1016.0 - 1.4 - - - - - - -
06/04:30pm 10.2 N 9 12 1015.7 - 1.0 - - - - - - -
06/04:00pm 10.4 N 9 14 1015.6 - 0.8 - - - - - - -
06/03:30pm 11.0 N 11 16 1015.4 - 0.8 - - - - - - -
06/03:00pm 11.3 N 11 16 1015.3 - 0.8 - - - - - - -
06/02:30pm 11.1 N 13 19 1015.1 - 0.8 - - - - - - -
06/02:00pm 11.3 N 10 16 1015.4 - 0.8 - - - - - - -
06/01:30pm 10.9 N 11 17 1015.5 - 0.8 - - - - - - -
06/01:00pm 10.7 N 12 20 1015.8 - 0.8 - - - - - - -
06/12:30pm 10.3 N 13 22 1016.0 - 0.8 - - - - - - -
06/12:00pm 10.1 N 11 16 1016.3 - 0.8 - - - - - - -
06/11:30am 9.7 N 11 18 1016.4 - 0.8 - - - - - - -
06/11:00am 9.1 N 10 14 1016.7 - 0.8 - - - - - - -
06/10:30am 8.8 N 11 15 1016.9 - 0.8 - - - - - - -
06/10:00am 8.5 N 8 14 1016.8 - 0.8 - - - - - - -
06/09:30am 7.7 N 10 14 1016.9 - 0.8 - - - - - - -
06/09:00am 7.5 N 10 14 1017.0 - 1.6 Rain - - - - - -
06/08:30am 7.7 N 10 18 1016.9 - 0.6 - - - - - - -
06/08:00am 8.4 N 10 15 1016.6 - 0.2 - - - - - - -
06/07:30am 8.6 N 8 13 1016.5 - 0.2 - - - - - - -
06/07:00am 8.7 N 9 14 1016.5 - 0.0 - - - - - - -
06/06:30am 8.9 N 8 14 1016.4 - 0.0 - - - - - - -
06/06:00am 9.1 N 9 16 1016.3 - 0.0 - - - - - - -
06/05:30am 9.1 N 9 15 1016.3 - 0.0 - - - - - - -
06/05:00am 9.1 N 9 13 1016.3 - 0.0 - - - - - - -
06/04:30am 9.1 N 9 14 1016.3 - 0.0 - - - - - - -
06/04:00am 9.3 N 11 15 1016.4 - 0.0 - - - - - - -
06/03:30am 9.3 N 12 17 1016.5 - 0.0 - - - - - - -
06/03:00am 9.3 N 12 20 1016.7 - 0.0 - - - - - - -
06/02:30am 9.2 N 11 19 1016.9 - 0.0 - - - - - - -
06/02:00am 9.3 N 11 17 1017.1 - 0.0 - - - - - - -
06/01:30am 9.4 N 11 15 1017.2 - 0.0 - - - - - - -
06/01:00am 9.5 N 10 15 1017.4 - 0.0 - - - - - - -
06/12:30am 9.6 N 11 16 1017.6 - 0.0 - - - - - - -
06/12:00am 9.7 N 11 18 1017.7 - 0.0 - - - - - - -
 
Date/Time
EST
Temp

°C
Wind Pressure Rain
since 9am
mm
Weather Cloud Vis
km
Sea
Height
m
Swell
Dir
 
Speed
knots
Gust
knots
hPa Trend Height
m
Period
s
Dir
05/11:30pm 9.8 N 11 17 1017.8 - 0.0 - - - - - - -
05/11:00pm 9.7 N 11 15 1017.8 - 0.0 - - - - - - -
05/10:30pm 10.0 N 9 15 1017.8 - 0.0 - - - - - - -
05/10:00pm 10.1 N 8 16 1018.0 - 0.0 - - - - - - -
05/09:30pm 10.3 N 10 16 1018.1 - 0.0 - - - - - - -
05/09:00pm 10.7 N 9 13 1018.2 - 0.0 - - - - - - -
05/08:30pm 10.9 N 9 16 1018.2 - 0.0 - - - - - - -
05/08:00pm 11.1 N 9 14 1018.2 - 0.0 - - - - - - -
05/07:30pm 11.3 N 7 12 1018.2 - 0.0 - - - - - - -
05/07:00pm 11.3 N 8 12 1018.0 - 0.0 - - - - - - -
05/06:30pm 11.4 NNE 7 11 1018.0 - 0.0 - - - - - - -
05/06:00pm 12.2 N 10 16 1017.9 - 0.0 - - - - - - -
05/05:30pm 12.2 N 8 11 1017.6 - 0.0 - - - - - - -
05/05:00pm 12.8 N 10 16 1017.5 - 0.0 - - - - - - -
05/04:30pm 13.1 N 9 15 1017.6 - 0.0 - - - - - - -
05/04:00pm 13.5 N 9 13 1017.6 - 0.0 - - - - - - -
05/03:30pm 13.2 NNE 9 13 1017.6 - 0.0 - - - - - - -
05/03:00pm 13.6 N 9 15 1017.7 - 0.0 - - - - - - -
05/02:30pm 13.6 N 11 19 1017.9 - 0.0 - - - - - - -
05/02:00pm 14.7 N 10 16 1018.0 - 0.0 - - - - - - -
05/01:30pm 14.6 N 11 16 1018.0 - 0.0 - - - - - - -
05/01:00pm 13.8 N 11 16 1018.3 - 0.0 - - - - - - -

Other Formats:

Comma delimited format used in spreadsheet applications
http://www.bom.gov.au/fwo/IDV60701/IDV60701.95936.axf

JavaScript Object Notation format (JSON) in row-major order
http://www.bom.gov.au/fwo/IDV60701/IDV60701.95936.json